Pineville, Kentucky
Current Conditions -  °F | °C
As of 8:55 AM on Friday 31 Oct 2014 (Local Time) from K1A6 Reporting Station
Haze Haze  
Wind Chill: 38°   Ceiling: 300
Heat Index: 38°   Visibility: 5mi
Dew Point: 38°   Wind: 0mph
Humidity: 100%   Direction: NA
Pressure: 30"   Gusts: NA
Location:  36.76°N, 83.69°W
Report Text: K1A6 311255Z AUTO 00000KT 5SM BR OVC003 04/04 A3000 RMK AO2 T00350035
Loading
Personal Weather Stations






























Interactive Weather Map
Tropical Storm Tracking
New forecast layout! Learn more

10-Day Weather Forecast

Advertisements
Track Severe Weather on mobile